sensor_id;sensor_type;location;lat;lon;timestamp;P1;durP1;ratioP1;P2;durP2;ratioP2
4452;SDS011;2239;48.152;11.584;2024-03-02T00:00:18;12.70;;;5.43;;
4452;SDS011;2239;48.152;11.584;2024-03-02T00:02:46;16.27;;;5.83;;
4452;SDS011;2239;48.152;11.584;2024-03-02T00:05:15;12.45;;;5.68;;
4452;SDS011;2239;48.152;11.584;2024-03-02T00:07:43;10.93;;;5.55;;
4452;SDS011;2239;48.152;11.584;2024-03-02T00:10:11;12.10;;;5.53;;
4452;SDS011;2239;48.152;11.584;2024-03-02T00:12:41;14.60;;;5.57;;
4452;SDS011;2239;48.152;11.584;2024-03-02T00:15:19;14.63;;;5.60;;
4452;SDS011;2239;48.152;11.584;2024-03-02T00:18:00;10.45;;;5.60;;
4452;SDS011;2239;48.152;11.584;2024-03-02T00:20:26;14.70;;;5.47;;
4452;SDS011;2239;48.152;11.584;2024-03-02T00:23:36;14.10;;;6.40;;
4452;SDS011;2239;48.152;11.584;2024-03-02T00:25:46;13.40;;;5.93;;
4452;SDS011;2239;48.152;11.584;2024-03-02T00:28:14;12.50;;;5.17;;
4452;SDS011;2239;48.152;11.584;2024-03-02T00:33:30;12.03;;;5.57;;
4452;SDS011;2239;48.152;11.584;2024-03-02T00:36:08;14.30;;;6.50;;
4452;SDS011;2239;48.152;11.584;2024-03-02T00:38:34;15.00;;;6.50;;
4452;SDS011;2239;48.152;11.584;2024-03-02T00:41:05;14.07;;;6.67;;
4452;SDS011;2239;48.152;11.584;2024-03-02T00:43:38;14.17;;;6.17;;
4452;SDS011;2239;48.152;11.584;2024-03-02T00:46:08;12.88;;;6.05;;
4452;SDS011;2239;48.152;11.584;2024-03-02T00:48:34;14.23;;;6.30;;
4452;SDS011;2239;48.152;11.584;2024-03-02T00:51:03;14.00;;;6.17;;
4452;SDS011;2239;48.152;11.584;2024-03-02T00:53:29;14.75;;;6.45;;
4452;SDS011;2239;48.152;11.584;2024-03-02T00:55:56;15.50;;;6.33;;
4452;SDS011;2239;48.152;11.584;2024-03-02T00:58:22;15.60;;;5.77;;
4452;SDS011;2239;48.152;11.584;2024-03-02T01:00:47;10.80;;;5.17;;
4452;SDS011;2239;48.152;11.584;2024-03-02T01:03:13;14.50;;;5.90;;
4452;SDS011;2239;48.152;11.584;2024-03-02T01:05:41;12.53;;;5.83;;
4452;SDS011;2239;48.152;11.584;2024-03-02T01:08:08;14.07;;;6.30;;
4452;SDS011;2239;48.152;11.584;2024-03-02T01:10:34;15.57;;;6.13;;
4452;SDS011;2239;48.152;11.584;2024-03-02T01:12:59;16.30;;;6.10;;
4452;SDS011;2239;48.152;11.584;2024-03-02T01:15:31;14.93;;;5.97;;
4452;SDS011;2239;48.152;11.584;2024-03-02T01:17:56;18.63;;;6.70;;
4452;SDS011;2239;48.152;11.584;2024-03-02T01:20:22;13.57;;;6.27;;
4452;SDS011;2239;48.152;11.584;2024-03-02T01:22:47;18.90;;;6.40;;
4452;SDS011;2239;48.152;11.584;2024-03-02T01:25:13;14.50;;;6.37;;
4452;SDS011;2239;48.152;11.584;2024-03-02T01:27:38;18.30;;;6.40;;
4452;SDS011;2239;48.152;11.584;2024-03-02T01:30:04;14.37;;;6.00;;
4452;SDS011;2239;48.152;11.584;2024-03-02T01:32:31;15.70;;;5.85;;
4452;SDS011;2239;48.152;11.584;2024-03-02T01:34:56;15.53;;;6.03;;
4452;SDS011;2239;48.152;11.584;2024-03-02T01:37:22;15.00;;;5.67;;
4452;SDS011;2239;48.152;11.584;2024-03-02T01:39:47;15.80;;;6.03;;
4452;SDS011;2239;48.152;11.584;2024-03-02T01:42:13;17.73;;;6.60;;
4452;SDS011;2239;48.152;11.584;2024-03-02T01:44:39;16.13;;;6.40;;
4452;SDS011;2239;48.152;11.584;2024-03-02T01:47:05;13.15;;;5.95;;
4452;SDS011;2239;48.152;11.584;2024-03-02T01:49:31;14.40;;;5.97;;
4452;SDS011;2239;48.152;11.584;2024-03-02T01:51:59;12.93;;;5.93;;
4452;SDS011;2239;48.152;11.584;2024-03-02T01:54:24;16.87;;;5.93;;
4452;SDS011;2239;48.152;11.584;2024-03-02T01:56:50;13.17;;;5.50;;
4452;SDS011;2239;48.152;11.584;2024-03-02T01:59:15;12.93;;;6.13;;
4452;SDS011;2239;48.152;11.584;2024-03-02T02:01:41;10.30;;;5.40;;
4452;SDS011;2239;48.152;11.584;2024-03-02T02:04:06;11.60;;;5.13;;
4452;SDS011;2239;48.152;11.584;2024-03-02T02:06:32;16.60;;;6.30;;
4452;SDS011;2239;48.152;11.584;2024-03-02T02:08:58;13.27;;;5.90;;
4452;SDS011;2239;48.152;11.584;2024-03-02T02:11:24;10.37;;;5.30;;
4452;SDS011;2239;48.152;11.584;2024-03-02T02:13:50;15.23;;;6.63;;
4452;SDS011;2239;48.152;11.584;2024-03-02T02:16:15;11.80;;;5.80;;
4452;SDS011;2239;48.152;11.584;2024-03-02T02:18:41;12.20;;;5.80;;
4452;SDS011;2239;48.152;11.584;2024-03-02T02:21:06;13.87;;;5.47;;
4452;SDS011;2239;48.152;11.584;2024-03-02T02:23:32;11.07;;;5.30;;
4452;SDS011;2239;48.152;11.584;2024-03-02T02:25:57;12.67;;;5.60;;
4452;SDS011;2239;48.152;11.584;2024-03-02T02:28:23;15.20;;;6.07;;
4452;SDS011;2239;48.152;11.584;2024-03-02T02:30:48;15.97;;;6.10;;
4452;SDS011;2239;48.152;11.584;2024-03-02T02:33:14;14.07;;;5.90;;
4452;SDS011;2239;48.152;11.584;2024-03-02T02:35:39;13.20;;;5.60;;
4452;SDS011;2239;48.152;11.584;2024-03-02T02:38:05;13.70;;;6.20;;
4452;SDS011;2239;48.152;11.584;2024-03-02T02:40:31;12.20;;;5.55;;
4452;SDS011;2239;48.152;11.584;2024-03-02T02:42:57;12.70;;;5.53;;
4452;SDS011;2239;48.152;11.584;2024-03-02T02:45:24;13.25;;;5.53;;
4452;SDS011;2239;48.152;11.584;2024-03-02T02:47:49;14.23;;;6.37;;
4452;SDS011;2239;48.152;11.584;2024-03-02T02:50:15;9.77;;;5.10;;
4452;SDS011;2239;48.152;11.584;2024-03-02T02:52:41;12.67;;;5.37;;
4452;SDS011;2239;48.152;11.584;2024-03-02T02:55:08;12.90;;;5.45;;
4452;SDS011;2239;48.152;11.584;2024-03-02T02:57:35;13.32;;;5.85;;
4452;SDS011;2239;48.152;11.584;2024-03-02T03:00:03;14.48;;;6.15;;
4452;SDS011;2239;48.152;11.584;2024-03-02T03:02:35;13.80;;;5.95;;
4452;SDS011;2239;48.152;11.584;2024-03-02T03:05:05;13.23;;;6.20;;
4452;SDS011;2239;48.152;11.584;2024-03-02T03:07:31;16.73;;;6.93;;
4452;SDS011;2239;48.152;11.584;2024-03-02T03:09:57;11.90;;;6.18;;
4452;SDS011;2239;48.152;11.584;2024-03-02T03:12:23;14.03;;;6.10;;
4452;SDS011;2239;48.152;11.584;2024-03-02T03:14:48;12.33;;;5.13;;
4452;SDS011;2239;48.152;11.584;2024-03-02T03:17:14;14.00;;;5.93;;
4452;SDS011;2239;48.152;11.584;2024-03-02T03:19:39;12.13;;;5.00;;
4452;SDS011;2239;48.152;11.584;2024-03-02T03:22:05;15.73;;;6.70;;
4452;SDS011;2239;48.152;11.584;2024-03-02T03:24:30;13.37;;;6.13;;
4452;SDS011;2239;48.152;11.584;2024-03-02T03:26:57;19.65;;;7.13;;
4452;SDS011;2239;48.152;11.584;2024-03-02T03:29:23;13.60;;;5.83;;
4452;SDS011;2239;48.152;11.584;2024-03-02T03:31:48;16.43;;;6.60;;
4452;SDS011;2239;48.152;11.584;2024-03-02T03:34:14;15.97;;;5.80;;
4452;SDS011;2239;48.152;11.584;2024-03-02T03:36:41;14.50;;;6.67;;
4452;SDS011;2239;48.152;11.584;2024-03-02T03:39:07;16.50;;;6.67;;
4452;SDS011;2239;48.152;11.584;2024-03-02T03:41:32;12.80;;;5.60;;
4452;SDS011;2239;48.152;11.584;2024-03-02T03:43:58;10.87;;;5.47;;
4452;SDS011;2239;48.152;11.584;2024-03-02T03:46:23;9.83;;;5.27;;
4452;SDS011;2239;48.152;11.584;2024-03-02T03:48:49;14.63;;;5.97;;
4452;SDS011;2239;48.152;11.584;2024-03-02T03:51:14;9.73;;;5.17;;
4452;SDS011;2239;48.152;11.584;2024-03-02T03:53:40;16.17;;;6.00;;
4452;SDS011;2239;48.152;11.584;2024-03-02T03:56:05;13.50;;;5.53;;
4452;SDS011;2239;48.152;11.584;2024-03-02T03:58:31;15.20;;;6.10;;
4452;SDS011;2239;48.152;11.584;2024-03-02T04:00:57;24.30;;;8.63;;
4452;SDS011;2239;48.152;11.584;2024-03-02T04:03:22;22.87;;;8.93;;
4452;SDS011;2239;48.152;11.584;2024-03-02T04:05:48;20.93;;;8.97;;
4452;SDS011;2239;48.152;11.584;2024-03-02T04:08:13;25.40;;;9.57;;
4452;SDS011;2239;48.152;11.584;2024-03-02T04:10:39;19.50;;;8.10;;
4452;SDS011;2239;48.152;11.584;2024-03-02T04:13:05;14.68;;;6.72;;
4452;SDS011;2239;48.152;11.584;2024-03-02T04:15:31;13.90;;;6.27;;
4452;SDS011;2239;48.152;11.584;2024-03-02T04:17:56;15.20;;;6.63;;
4452;SDS011;2239;48.152;11.584;2024-03-02T04:20:21;23.83;;;6.90;;
4452;SDS011;2239;48.152;11.584;2024-03-02T04:22:47;16.60;;;6.43;;
4452;SDS011;2239;48.152;11.584;2024-03-02T04:25:13;19.30;;;7.67;;
4452;SDS011;2239;48.152;11.584;2024-03-02T04:27:38;20.10;;;6.70;;
4452;SDS011;2239;48.152;11.584;2024-03-02T04:30:04;18.93;;;7.10;;
4452;SDS011;2239;48.152;11.584;2024-03-02T04:32:30;16.63;;;7.40;;
4452;SDS011;2239;48.152;11.584;2024-03-02T04:34:56;18.67;;;7.03;;
4452;SDS011;2239;48.152;11.584;2024-03-02T04:37:22;21.60;;;7.37;;
4452;SDS011;2239;48.152;11.584;2024-03-02T04:39:47;16.77;;;6.83;;
4452;SDS011;2239;48.152;11.584;2024-03-02T04:42:13;18.47;;;7.70;;
4452;SDS011;2239;48.152;11.584;2024-03-02T04:44:38;18.83;;;7.77;;
4452;SDS011;2239;48.152;11.584;2024-03-02T04:47:04;20.90;;;7.97;;
4452;SDS011;2239;48.152;11.584;2024-03-02T04:49:30;17.97;;;7.50;;
4452;SDS011;2239;48.152;11.584;2024-03-02T04:51:56;19.60;;;7.27;;
4452;SDS011;2239;48.152;11.584;2024-03-02T04:54:24;16.77;;;6.97;;
4452;SDS011;2239;48.152;11.584;2024-03-02T04:56:50;17.70;;;7.73;;
4452;SDS011;2239;48.152;11.584;2024-03-02T04:59:16;17.70;;;6.80;;
4452;SDS011;2239;48.152;11.584;2024-03-02T05:01:42;21.53;;;7.60;;
4452;SDS011;2239;48.152;11.584;2024-03-02T05:04:09;21.20;;;8.20;;
4452;SDS011;2239;48.152;11.584;2024-03-02T05:06:38;18.10;;;7.37;;
4452;SDS011;2239;48.152;11.584;2024-03-02T05:09:05;16.33;;;7.33;;
4452;SDS011;2239;48.152;11.584;2024-03-02T05:11:31;21.00;;;7.53;;
4452;SDS011;2239;48.152;11.584;2024-03-02T05:14:03;17.80;;;7.73;;
4452;SDS011;2239;48.152;11.584;2024-03-02T05:16:28;22.80;;;8.30;;
4452;SDS011;2239;48.152;11.584;2024-03-02T05:18:54;27.90;;;8.90;;
4452;SDS011;2239;48.152;11.584;2024-03-02T05:21:20;21.70;;;7.97;;
4452;SDS011;2239;48.152;11.584;2024-03-02T05:23:46;18.33;;;7.40;;
4452;SDS011;2239;48.152;11.584;2024-03-02T05:26:11;17.03;;;7.60;;
4452;SDS011;2239;48.152;11.584;2024-03-02T05:28:38;16.60;;;7.37;;
4452;SDS011;2239;48.152;11.584;2024-03-02T05:31:04;21.98;;;8.90;;
4452;SDS011;2239;48.152;11.584;2024-03-02T05:33:30;16.60;;;7.10;;
4452;SDS011;2239;48.152;11.584;2024-03-02T05:35:56;16.92;;;6.55;;
4452;SDS011;2239;48.152;11.584;2024-03-02T05:38:22;18.97;;;7.87;;
4452;SDS011;2239;48.152;11.584;2024-03-02T05:40:48;20.50;;;7.73;;
4452;SDS011;2239;48.152;11.584;2024-03-02T05:43:13;18.80;;;8.07;;
4452;SDS011;2239;48.152;11.584;2024-03-02T05:45:39;22.63;;;8.10;;
4452;SDS011;2239;48.152;11.584;2024-03-02T05:48:06;21.70;;;8.40;;
4452;SDS011;2239;48.152;11.584;2024-03-02T05:50:32;23.90;;;8.80;;
4452;SDS011;2239;48.152;11.584;2024-03-02T05:52:58;23.00;;;8.57;;
4452;SDS011;2239;48.152;11.584;2024-03-02T05:55:24;20.10;;;8.97;;
4452;SDS011;2239;48.152;11.584;2024-03-02T05:57:49;21.87;;;8.23;;
4452;SDS011;2239;48.152;11.584;2024-03-02T06:00:33;22.77;;;8.30;;
4452;SDS011;2239;48.152;11.584;2024-03-02T06:02:59;22.87;;;8.57;;
4452;SDS011;2239;48.152;11.584;2024-03-02T06:05:24;22.07;;;8.50;;
4452;SDS011;2239;48.152;11.584;2024-03-02T06:07:50;23.00;;;8.23;;
4452;SDS011;2239;48.152;11.584;2024-03-02T06:10:16;23.10;;;8.27;;
4452;SDS011;2239;48.152;11.584;2024-03-02T06:12:42;21.30;;;8.73;;
4452;SDS011;2239;48.152;11.584;2024-03-02T06:15:08;23.83;;;7.73;;
4452;SDS011;2239;48.152;11.584;2024-03-02T06:17:35;20.60;;;8.53;;
4452;SDS011;2239;48.152;11.584;2024-03-02T06:20:00;21.23;;;8.47;;
4452;SDS011;2239;48.152;11.584;2024-03-02T06:22:26;23.97;;;9.37;;
4452;SDS011;2239;48.152;11.584;2024-03-02T06:24:51;17.23;;;8.07;;
4452;SDS011;2239;48.152;11.584;2024-03-02T06:27:17;25.30;;;9.20;;
4452;SDS011;2239;48.152;11.584;2024-03-02T06:29:42;17.10;;;7.33;;
4452;SDS011;2239;48.152;11.584;2024-03-02T06:32:08;17.70;;;8.03;;
4452;SDS011;2239;48.152;11.584;2024-03-02T06:34:33;23.10;;;8.17;;
4452;SDS011;2239;48.152;11.584;2024-03-02T06:36:59;19.03;;;8.27;;
4452;SDS011;2239;48.152;11.584;2024-03-02T06:39:24;19.50;;;7.73;;
4452;SDS011;2239;48.152;11.584;2024-03-02T06:41:50;19.67;;;7.70;;
4452;SDS011;2239;48.152;11.584;2024-03-02T06:44:16;18.80;;;8.10;;
4452;SDS011;2239;48.152;11.584;2024-03-02T06:46:42;26.13;;;8.40;;
4452;SDS011;2239;48.152;11.584;2024-03-02T06:49:08;24.50;;;8.77;;
4452;SDS011;2239;48.152;11.584;2024-03-02T06:51:35;25.93;;;8.83;;
4452;SDS011;2239;48.152;11.584;2024-03-02T06:54:01;20.47;;;8.40;;
4452;SDS011;2239;48.152;11.584;2024-03-02T06:56:26;19.37;;;8.70;;
4452;SDS011;2239;48.152;11.584;2024-03-02T06:58:51;21.27;;;7.80;;
4452;SDS011;2239;48.152;11.584;2024-03-02T07:01:17;19.73;;;8.47;;
4452;SDS011;2239;48.152;11.584;2024-03-02T07:03:42;21.13;;;8.30;;
4452;SDS011;2239;48.152;11.584;2024-03-02T07:06:09;23.90;;;8.73;;
4452;SDS011;2239;48.152;11.584;2024-03-02T07:08:34;19.90;;;9.47;;
4452;SDS011;2239;48.152;11.584;2024-03-02T07:11:00;23.17;;;9.23;;
4452;SDS011;2239;48.152;11.584;2024-03-02T07:13:25;22.07;;;8.83;;
4452;SDS011;2239;48.152;11.584;2024-03-02T07:15:51;24.00;;;9.57;;
4452;SDS011;2239;48.152;11.584;2024-03-02T07:18:35;22.17;;;8.80;;
4452;SDS011;2239;48.152;11.584;2024-03-02T07:21:09;26.05;;;9.20;;
4452;SDS011;2239;48.152;11.584;2024-03-02T07:23:35;24.73;;;9.00;;
4452;SDS011;2239;48.152;11.584;2024-03-02T07:26:01;20.63;;;8.30;;
4452;SDS011;2239;48.152;11.584;2024-03-02T07:28:26;23.80;;;9.30;;
4452;SDS011;2239;48.152;11.584;2024-03-02T07:30:58;21.37;;;9.27;;
4452;SDS011;2239;48.152;11.584;2024-03-02T07:33:27;19.20;;;8.55;;
4452;SDS011;2239;48.152;11.584;2024-03-02T07:35:53;23.90;;;10.20;;
4452;SDS011;2239;48.152;11.584;2024-03-02T07:38:20;28.07;;;9.70;;
4452;SDS011;2239;48.152;11.584;2024-03-02T07:40:46;25.57;;;10.50;;
4452;SDS011;2239;48.152;11.584;2024-03-02T07:43:12;20.00;;;8.23;;
4452;SDS011;2239;48.152;11.584;2024-03-02T07:45:38;25.23;;;9.70;;
4452;SDS011;2239;48.152;11.584;2024-03-02T07:48:03;29.20;;;11.00;;
4452;SDS011;2239;48.152;11.584;2024-03-02T07:50:29;23.77;;;9.50;;
4452;SDS011;2239;48.152;11.584;2024-03-02T07:53:00;19.73;;;9.40;;
4452;SDS011;2239;48.152;11.584;2024-03-02T07:55:26;21.60;;;9.00;;
4452;SDS011;2239;48.152;11.584;2024-03-02T07:57:51;24.80;;;9.63;;
4452;SDS011;2239;48.152;11.584;2024-03-02T08:00:17;25.70;;;9.13;;
4452;SDS011;2239;48.152;11.584;2024-03-02T08:02:42;21.70;;;8.70;;
4452;SDS011;2239;48.152;11.584;2024-03-02T08:05:08;22.33;;;9.50;;
4452;SDS011;2239;48.152;11.584;2024-03-02T08:07:34;15.93;;;7.13;;
4452;SDS011;2239;48.152;11.584;2024-03-02T08:10:00;20.27;;;7.77;;
4452;SDS011;2239;48.152;11.584;2024-03-02T08:12:25;17.77;;;8.10;;
4452;SDS011;2239;48.152;11.584;2024-03-02T08:14:51;17.40;;;7.70;;
4452;SDS011;2239;48.152;11.584;2024-03-02T08:17:16;11.90;;;5.80;;
4452;SDS011;2239;48.152;11.584;2024-03-02T08:19:42;18.17;;;7.37;;
4452;SDS011;2239;48.152;11.584;2024-03-02T08:22:09;17.73;;;7.60;;
4452;SDS011;2239;48.152;11.584;2024-03-02T08:24:34;17.53;;;7.20;;
4452;SDS011;2239;48.152;11.584;2024-03-02T08:27:01;17.80;;;7.20;;
4452;SDS011;2239;48.152;11.584;2024-03-02T08:29:26;6.87;;;3.60;;
4452;SDS011;2239;48.152;11.584;2024-03-02T08:31:52;12.30;;;5.10;;
4452;SDS011;2239;48.152;11.584;2024-03-02T08:34:18;16.50;;;7.10;;
4452;SDS011;2239;48.152;11.584;2024-03-02T08:36:44;9.50;;;4.37;;
4452;SDS011;2239;48.152;11.584;2024-03-02T08:39:10;13.50;;;6.13;;
4452;SDS011;2239;48.152;11.584;2024-03-02T08:41:40;11.63;;;5.13;;
4452;SDS011;2239;48.152;11.584;2024-03-02T08:44:07;21.47;;;10.30;;
4452;SDS011;2239;48.152;11.584;2024-03-02T08:46:32;17.70;;;8.80;;
4452;SDS011;2239;48.152;11.584;2024-03-02T08:48:58;18.30;;;7.97;;
4452;SDS011;2239;48.152;11.584;2024-03-02T08:51:23;14.97;;;8.00;;
4452;SDS011;2239;48.152;11.584;2024-03-02T08:53:49;11.00;;;5.80;;
4452;SDS011;2239;48.152;11.584;2024-03-02T08:56:15;18.53;;;8.60;;
4452;SDS011;2239;48.152;11.584;2024-03-02T08:58:40;18.30;;;8.47;;
4452;SDS011;2239;48.152;11.584;2024-03-02T09:01:06;18.73;;;8.67;;
4452;SDS011;2239;48.152;11.584;2024-03-02T09:03:33;13.30;;;6.87;;
4452;SDS011;2239;48.152;11.584;2024-03-02T09:05:59;9.73;;;5.20;;
4452;SDS011;2239;48.152;11.584;2024-03-02T09:08:25;17.53;;;7.60;;
4452;SDS011;2239;48.152;11.584;2024-03-02T09:10:51;15.60;;;6.40;;
4452;SDS011;2239;48.152;11.584;2024-03-02T09:13:17;13.53;;;7.20;;
4452;SDS011;2239;48.152;11.584;2024-03-02T09:15:43;19.17;;;8.33;;
4452;SDS011;2239;48.152;11.584;2024-03-02T09:18:09;15.20;;;6.80;;
4452;SDS011;2239;48.152;11.584;2024-03-02T09:20:35;14.47;;;6.33;;
4452;SDS011;2239;48.152;11.584;2024-03-02T09:23:00;13.40;;;6.10;;
4452;SDS011;2239;48.152;11.584;2024-03-02T09:25:26;12.40;;;6.17;;
4452;SDS011;2239;48.152;11.584;2024-03-02T09:27:52;10.03;;;4.07;;
4452;SDS011;2239;48.152;11.584;2024-03-02T09:30:17;7.20;;;4.03;;
4452;SDS011;2239;48.152;11.584;2024-03-02T09:32:43;11.60;;;6.30;;
4452;SDS011;2239;48.152;11.584;2024-03-02T09:35:08;12.80;;;6.80;;
4452;SDS011;2239;48.152;11.584;2024-03-02T09:37:34;9.67;;;4.63;;
4452;SDS011;2239;48.152;11.584;2024-03-02T09:40:00;13.97;;;6.30;;
4452;SDS011;2239;48.152;11.584;2024-03-02T09:42:26;16.93;;;7.70;;
4452;SDS011;2239;48.152;11.584;2024-03-02T09:44:53;10.17;;;5.53;;
4452;SDS011;2239;48.152;11.584;2024-03-02T09:47:18;17.60;;;6.90;;
4452;SDS011;2239;48.152;11.584;2024-03-02T09:49:44;12.20;;;6.23;;
4452;SDS011;2239;48.152;11.584;2024-03-02T09:52:10;8.80;;;4.37;;
4452;SDS011;2239;48.152;11.584;2024-03-02T09:54:36;9.30;;;5.30;;
4452;SDS011;2239;48.152;11.584;2024-03-02T09:57:01;9.33;;;5.50;;
4452;SDS011;2239;48.152;11.584;2024-03-02T09:59:27;11.23;;;5.30;;
4452;SDS011;2239;48.152;11.584;2024-03-02T10:01:57;12.17;;;5.50;;
4452;SDS011;2239;48.152;11.584;2024-03-02T10:04:26;11.73;;;4.63;;
4452;SDS011;2239;48.152;11.584;2024-03-02T10:07:14;5.60;;;2.77;;
4452;SDS011;2239;48.152;11.584;2024-03-02T10:09:43;13.03;;;5.73;;
4452;SDS011;2239;48.152;11.584;2024-03-02T10:12:13;15.00;;;6.30;;
4452;SDS011;2239;48.152;11.584;2024-03-02T10:14:40;12.87;;;5.93;;
4452;SDS011;2239;48.152;11.584;2024-03-02T10:17:08;13.60;;;6.57;;
4452;SDS011;2239;48.152;11.584;2024-03-02T10:19:36;11.60;;;5.97;;
4452;SDS011;2239;48.152;11.584;2024-03-02T10:22:02;11.77;;;5.20;;
4452;SDS011;2239;48.152;11.584;2024-03-02T10:24:41;11.77;;;4.97;;
4452;SDS011;2239;48.152;11.584;2024-03-02T10:27:23;14.23;;;5.97;;
4452;SDS011;2239;48.152;11.584;2024-03-02T10:29:51;13.53;;;5.57;;
4452;SDS011;2239;48.152;11.584;2024-03-02T10:32:16;15.40;;;6.43;;
4452;SDS011;2239;48.152;11.584;2024-03-02T10:34:43;10.07;;;4.87;;
4452;SDS011;2239;48.152;11.584;2024-03-02T10:37:11;13.50;;;5.40;;
4452;SDS011;2239;48.152;11.584;2024-03-02T10:39:37;10.40;;;4.97;;
4452;SDS011;2239;48.152;11.584;2024-03-02T10:42:06;9.80;;;5.10;;
4452;SDS011;2239;48.152;11.584;2024-03-02T10:44:33;13.80;;;5.00;;
4452;SDS011;2239;48.152;11.584;2024-03-02T10:47:00;11.70;;;5.70;;
4452;SDS011;2239;48.152;11.584;2024-03-02T10:49:31;13.13;;;5.87;;
4452;SDS011;2239;48.152;11.584;2024-03-02T10:52:00;12.00;;;5.87;;
4452;SDS011;2239;48.152;11.584;2024-03-02T10:54:26;14.73;;;6.60;;
4452;SDS011;2239;48.152;11.584;2024-03-02T10:56:54;17.70;;;6.80;;
4452;SDS011;2239;48.152;11.584;2024-03-02T10:59:27;17.77;;;7.33;;
4452;SDS011;2239;48.152;11.584;2024-03-02T11:01:57;17.17;;;6.77;;
4452;SDS011;2239;48.152;11.584;2024-03-02T11:04:24;16.33;;;6.60;;
4452;SDS011;2239;48.152;11.584;2024-03-02T11:06:51;21.37;;;7.30;;
4452;SDS011;2239;48.152;11.584;2024-03-02T11:09:20;18.40;;;7.57;;
4452;SDS011;2239;48.152;11.584;2024-03-02T11:11:51;18.83;;;7.20;;
4452;SDS011;2239;48.152;11.584;2024-03-02T11:14:24;17.17;;;7.60;;
4452;SDS011;2239;48.152;11.584;2024-03-02T11:16:50;18.77;;;7.50;;
4452;SDS011;2239;48.152;11.584;2024-03-02T11:19:17;20.17;;;7.67;;
4452;SDS011;2239;48.152;11.584;2024-03-02T11:21:43;16.67;;;7.20;;
4452;SDS011;2239;48.152;11.584;2024-03-02T11:26:49;16.03;;;8.00;;
4452;SDS011;2239;48.152;11.584;2024-03-02T11:32:00;20.47;;;7.90;;
4452;SDS011;2239;48.152;11.584;2024-03-02T11:34:35;18.70;;;8.20;;
4452;SDS011;2239;48.152;11.584;2024-03-02T11:37:04;21.10;;;8.20;;
4452;SDS011;2239;48.152;11.584;2024-03-02T11:39:30;19.40;;;8.23;;
4452;SDS011;2239;48.152;11.584;2024-03-02T11:41:56;23.93;;;7.53;;
4452;SDS011;2239;48.152;11.584;2024-03-02T11:44:22;22.80;;;8.27;;
4452;SDS011;2239;48.152;11.584;2024-03-02T11:47:00;20.33;;;7.53;;
4452;SDS011;2239;48.152;11.584;2024-03-02T11:49:36;16.93;;;7.87;;
4452;SDS011;2239;48.152;11.584;2024-03-02T11:52:03;20.03;;;7.63;;
4452;SDS011;2239;48.152;11.584;2024-03-02T11:54:32;22.13;;;8.87;;
4452;SDS011;2239;48.152;11.584;2024-03-02T11:57:00;25.07;;;10.27;;
4452;SDS011;2239;48.152;11.584;2024-03-02T11:59:27;20.10;;;8.30;;
4452;SDS011;2239;48.152;11.584;2024-03-02T12:01:54;19.10;;;7.73;;
4452;SDS011;2239;48.152;11.584;2024-03-02T12:04:26;25.33;;;10.43;;
4452;SDS011;2239;48.152;11.584;2024-03-02T12:06:55;22.20;;;8.83;;
4452;SDS011;2239;48.152;11.584;2024-03-02T12:09:24;23.80;;;9.90;;
4452;SDS011;2239;48.152;11.584;2024-03-02T12:12:07;31.70;;;10.03;;
4452;SDS011;2239;48.152;11.584;2024-03-02T12:14:34;17.50;;;8.70;;
4452;SDS011;2239;48.152;11.584;2024-03-02T12:17:01;24.97;;;9.93;;
4452;SDS011;2239;48.152;11.584;2024-03-02T12:19:27;21.73;;;9.43;;
4452;SDS011;2239;48.152;11.584;2024-03-02T12:21:55;22.50;;;8.60;;
4452;SDS011;2239;48.152;11.584;2024-03-02T12:24:21;22.70;;;9.30;;
4452;SDS011;2239;48.152;11.584;2024-03-02T12:26:48;22.50;;;9.23;;
4452;SDS011;2239;48.152;11.584;2024-03-02T12:29:14;23.67;;;9.37;;
4452;SDS011;2239;48.152;11.584;2024-03-02T12:31:41;21.80;;;9.17;;
4452;SDS011;2239;48.152;11.584;2024-03-02T12:34:08;20.60;;;9.50;;
4452;SDS011;2239;48.152;11.584;2024-03-02T12:36:38;25.67;;;10.10;;
4452;SDS011;2239;48.152;11.584;2024-03-02T12:39:04;25.90;;;10.10;;
4452;SDS011;2239;48.152;11.584;2024-03-02T12:41:29;19.97;;;9.70;;
4452;SDS011;2239;48.152;11.584;2024-03-02T12:43:55;22.13;;;9.00;;
4452;SDS011;2239;48.152;11.584;2024-03-02T12:46:21;25.13;;;9.87;;
4452;SDS011;2239;48.152;11.584;2024-03-02T12:48:47;23.60;;;9.30;;
4452;SDS011;2239;48.152;11.584;2024-03-02T12:51:12;25.20;;;10.00;;
4452;SDS011;2239;48.152;11.584;2024-03-02T12:53:39;20.03;;;9.30;;
4452;SDS011;2239;48.152;11.584;2024-03-02T12:56:04;23.20;;;9.47;;
4452;SDS011;2239;48.152;11.584;2024-03-02T12:58:31;28.57;;;10.77;;
4452;SDS011;2239;48.152;11.584;2024-03-02T13:01:09;22.43;;;9.23;;
4452;SDS011;2239;48.152;11.584;2024-03-02T13:03:38;23.80;;;10.03;;
4452;SDS011;2239;48.152;11.584;2024-03-02T13:06:05;27.87;;;10.00;;
4452;SDS011;2239;48.152;11.584;2024-03-02T13:08:31;28.93;;;10.37;;
4452;SDS011;2239;48.152;11.584;2024-03-02T13:10:57;26.77;;;10.67;;
4452;SDS011;2239;48.152;11.584;2024-03-02T13:13:23;21.03;;;9.83;;
4452;SDS011;2239;48.152;11.584;2024-03-02T13:15:49;18.07;;;7.30;;
4452;SDS011;2239;48.152;11.584;2024-03-02T13:18:14;24.13;;;10.00;;
4452;SDS011;2239;48.152;11.584;2024-03-02T13:20:42;23.20;;;9.30;;
4452;SDS011;2239;48.152;11.584;2024-03-02T13:23:08;27.40;;;9.80;;
4452;SDS011;2239;48.152;11.584;2024-03-02T13:25:33;24.30;;;10.37;;
4452;SDS011;2239;48.152;11.584;2024-03-02T13:27:59;22.13;;;8.93;;
4452;SDS011;2239;48.152;11.584;2024-03-02T13:30:25;24.37;;;10.50;;
4452;SDS011;2239;48.152;11.584;2024-03-02T13:32:51;23.87;;;9.90;;
4452;SDS011;2239;48.152;11.584;2024-03-02T13:35:18;22.63;;;9.47;;
4452;SDS011;2239;48.152;11.584;2024-03-02T13:37:43;23.97;;;9.43;;
4452;SDS011;2239;48.152;11.584;2024-03-02T13:40:09;23.20;;;9.70;;
4452;SDS011;2239;48.152;11.584;2024-03-02T13:42:39;24.33;;;10.43;;
4452;SDS011;2239;48.152;11.584;2024-03-02T13:45:05;23.83;;;9.90;;
4452;SDS011;2239;48.152;11.584;2024-03-02T13:47:31;24.70;;;10.67;;
4452;SDS011;2239;48.152;11.584;2024-03-02T13:49:57;24.17;;;10.20;;
4452;SDS011;2239;48.152;11.584;2024-03-02T13:52:23;23.33;;;9.93;;
4452;SDS011;2239;48.152;11.584;2024-03-02T13:54:50;24.63;;;10.33;;
4452;SDS011;2239;48.152;11.584;2024-03-02T13:57:17;24.40;;;9.73;;
4452;SDS011;2239;48.152;11.584;2024-03-02T13:59:44;27.27;;;9.10;;
4452;SDS011;2239;48.152;11.584;2024-03-02T14:02:11;21.97;;;8.60;;
4452;SDS011;2239;48.152;11.584;2024-03-02T14:04:37;24.33;;;8.20;;
4452;SDS011;2239;48.152;11.584;2024-03-02T14:07:04;19.13;;;8.20;;
4452;SDS011;2239;48.152;11.584;2024-03-02T14:09:33;16.23;;;7.20;;
4452;SDS011;2239;48.152;11.584;2024-03-02T14:11:58;20.97;;;8.17;;
4452;SDS011;2239;48.152;11.584;2024-03-02T14:14:25;22.20;;;7.87;;
4452;SDS011;2239;48.152;11.584;2024-03-02T14:16:54;19.30;;;7.60;;
4452;SDS011;2239;48.152;11.584;2024-03-02T14:19:31;20.37;;;7.83;;
4452;SDS011;2239;48.152;11.584;2024-03-02T14:21:57;20.23;;;7.77;;
4452;SDS011;2239;48.152;11.584;2024-03-02T14:24:23;13.93;;;6.70;;
4452;SDS011;2239;48.152;11.584;2024-03-02T14:26:53;18.60;;;7.37;;
4452;SDS011;2239;48.152;11.584;2024-03-02T14:29:18;19.57;;;7.37;;
4452;SDS011;2239;48.152;11.584;2024-03-02T14:31:44;17.93;;;7.40;;
4452;SDS011;2239;48.152;11.584;2024-03-02T14:34:13;20.30;;;7.87;;
4452;SDS011;2239;48.152;11.584;2024-03-02T14:36:41;16.93;;;7.10;;
4452;SDS011;2239;48.152;11.584;2024-03-02T14:39:09;17.03;;;6.27;;
4452;SDS011;2239;48.152;11.584;2024-03-02T14:41:35;17.10;;;7.33;;
4452;SDS011;2239;48.152;11.584;2024-03-02T14:44:01;18.80;;;7.87;;
4452;SDS011;2239;48.152;11.584;2024-03-02T14:46:27;24.37;;;6.63;;
4452;SDS011;2239;48.152;11.584;2024-03-02T14:48:52;16.77;;;6.70;;
4452;SDS011;2239;48.152;11.584;2024-03-02T14:51:18;17.50;;;7.47;;
4452;SDS011;2239;48.152;11.584;2024-03-02T14:53:43;24.07;;;8.07;;